Notice: Undefined index: station in /home3/dimtiris/public_html/webApp/metar/index.php on line 4

Metar

Weather conditions for all airports of the world. Just type the ICAO code of an airport.

LGAV 221120Z 11005KT 060V170 9999 FEW030 29/08 Q1014 NOSIG

STATION LGAV
OBSERVED Fri May 22, 05:20 MDT
NOW Fri May 22, 05:27 MDT
AGE 7 min ago
WIND ESE at 6 mph
VISIBILITY 16 miles
CONDITIONS
CLOUDS partly cloudy
TEMP 84°F (29°C)
DEWPT 46°F (8°C)
HUMIDITY 27%
BAROMETER 1014 hPa (29.94 in Hg)

Get weather info from other station:

Some ICAO codes to try: